createdAt,value
2023-03-17T00:01:59.337Z,28.80
2023-03-17T00:15:41.328Z,28.80
2023-03-17T00:18:18.576Z,29.00
2023-03-17T00:20:48.056Z,29.10
2023-03-17T00:23:23.785Z,29.10
2023-03-17T00:25:52.607Z,29.00
2023-03-17T00:28:23.951Z,29.00
2023-03-17T00:31:01.150Z,29.00
2023-03-17T00:33:34.381Z,29.00
2023-03-17T00:36:03.010Z,29.00
2023-03-17T00:38:31.203Z,29.00
2023-03-17T00:40:59.383Z,28.90
2023-03-17T00:43:29.235Z,28.90
2023-03-17T00:45:58.636Z,28.90
2023-03-17T00:48:27.970Z,28.90
2023-03-17T00:50:56.463Z,28.90
2023-03-17T00:53:24.714Z,28.90
2023-03-17T00:55:53.125Z,28.90
2023-03-17T00:58:29.906Z,28.90
2023-03-17T01:00:58.482Z,28.90
2023-03-17T01:03:27.472Z,28.80
2023-03-17T01:05:57.181Z,28.90
2023-03-17T01:08:26.517Z,28.90
2023-03-17T01:10:54.679Z,28.80
2023-03-17T01:13:23.044Z,28.80
2023-03-17T01:15:51.531Z,28.80
2023-03-17T01:18:23.104Z,28.80
2023-03-17T01:20:52.193Z,28.80
2023-03-17T01:23:20.333Z,28.80
2023-03-17T01:25:48.595Z,28.80
2023-03-17T01:28:19.195Z,28.80
2023-03-17T01:30:48.002Z,28.80
2023-03-17T01:33:16.170Z,28.80
2023-03-17T01:35:44.929Z,28.80
2023-03-17T01:38:14.084Z,28.80
2023-03-17T01:40:48.645Z,28.80
2023-03-17T01:43:26.129Z,28.80
2023-03-17T01:46:24.047Z,28.80
2023-03-17T01:48:59.475Z,28.80
2023-03-17T01:51:47.801Z,28.80
2023-03-17T01:54:22.500Z,28.80
2023-03-17T01:56:52.994Z,28.80
2023-03-17T01:59:26.413Z,28.80
2023-03-17T02:02:01.644Z,28.80
2023-03-17T02:04:30.314Z,28.80
2023-03-17T02:06:59.171Z,28.80
2023-03-17T02:09:29.129Z,28.80
2023-03-17T02:11:59.186Z,28.70
2023-03-17T02:14:27.905Z,28.80
2023-03-17T02:16:56.425Z,28.80
2023-03-17T02:19:24.881Z,28.70
2023-03-17T02:21:57.656Z,28.80
2023-03-17T02:24:31.638Z,28.70
2023-03-17T02:27:09.180Z,28.70
2023-03-17T02:29:37.621Z,28.70
2023-03-17T02:32:06.060Z,28.70
2023-03-17T02:34:35.005Z,28.70
2023-03-17T02:37:06.018Z,28.70
2023-03-17T02:39:34.687Z,28.70
2023-03-17T02:42:04.348Z,28.70
2023-03-17T02:44:32.542Z,28.70
2023-03-17T02:47:00.687Z,28.70
2023-03-17T02:49:30.118Z,28.70
2023-03-17T02:51:58.391Z,28.70
2023-03-17T02:54:26.772Z,28.70
2023-03-17T02:56:54.597Z,28.70
2023-03-17T02:59:22.771Z,28.70
2023-03-17T03:01:51.022Z,28.70
2023-03-17T03:04:20.296Z,28.70
2023-03-17T03:06:49.165Z,28.70
2023-03-17T03:09:17.328Z,28.70
2023-03-17T03:11:45.953Z,28.70
2023-03-17T03:14:14.797Z,28.70
2023-03-17T03:16:43.136Z,28.70
2023-03-17T03:19:11.307Z,28.70
2023-03-17T03:21:39.201Z,28.70
2023-03-17T03:24:07.913Z,28.70
2023-03-17T03:26:36.307Z,28.70
2023-03-17T03:29:05.587Z,28.70
2023-03-17T03:31:34.057Z,28.60
2023-03-17T03:34:02.252Z,28.60
2023-03-17T03:36:30.524Z,28.70
2023-03-17T03:38:58.388Z,28.60
2023-03-17T03:41:26.650Z,28.70
2023-03-17T03:43:54.777Z,28.60
2023-03-17T03:46:23.277Z,28.60
2023-03-17T03:48:51.224Z,28.60
2023-03-17T03:51:19.466Z,28.60
2023-03-17T03:53:47.644Z,28.60
2023-03-17T03:56:16.024Z,28.60
2023-03-17T03:58:43.856Z,28.60
2023-03-17T04:01:12.016Z,28.60
2023-03-17T04:03:40.243Z,28.60
2023-03-17T04:06:08.651Z,28.60
2023-03-17T04:08:36.820Z,28.60
2023-03-17T04:11:05.251Z,28.60
2023-03-17T04:13:33.129Z,28.60
2023-03-17T04:16:01.478Z,28.60
2023-03-17T04:18:29.450Z,28.60
2023-03-17T04:20:57.655Z,28.60
2023-03-17T04:23:25.909Z,28.60
2023-03-17T04:25:54.593Z,28.60
2023-03-17T04:28:22.761Z,28.60
2023-03-17T04:30:51.016Z,28.60
2023-03-17T04:33:19.172Z,28.60
2023-03-17T04:35:47.376Z,28.60
2023-03-17T04:38:15.686Z,28.60
2023-03-17T04:40:43.580Z,28.60
2023-03-17T04:43:11.821Z,28.60
2023-03-17T04:45:40.138Z,28.60
2023-03-17T04:48:08.344Z,28.50
2023-03-17T04:50:36.559Z,28.60
2023-03-17T04:53:04.732Z,28.60
2023-03-17T04:55:32.893Z,28.60
2023-03-17T04:58:01.389Z,28.60
2023-03-17T05:00:29.863Z,28.60
2023-03-17T05:02:58.174Z,28.60
2023-03-17T05:05:26.523Z,28.60
2023-03-17T05:07:54.330Z,28.60
2023-03-17T05:10:22.466Z,28.60
2023-03-17T05:12:50.755Z,28.60
2023-03-17T05:15:19.346Z,28.60
2023-03-17T05:17:47.668Z,28.50
2023-03-17T05:20:15.996Z,28.50
2023-03-17T05:22:43.837Z,28.50
2023-03-17T05:25:12.008Z,28.50
2023-03-17T05:27:39.943Z,28.50
2023-03-17T05:30:08.837Z,28.50
2023-03-17T05:32:37.121Z,28.50
2023-03-17T05:35:05.581Z,28.50
2023-03-17T05:37:33.773Z,28.50
2023-03-17T05:40:01.997Z,28.50
2023-03-17T05:42:30.342Z,28.50
2023-03-17T05:44:58.560Z,28.50
2023-03-17T05:47:26.774Z,28.50
2023-03-17T05:49:54.835Z,28.50
2023-03-17T05:52:23.148Z,28.50
2023-03-17T05:54:51.454Z,28.50
2023-03-17T05:57:19.343Z,28.50
2023-03-17T05:59:47.743Z,28.50
2023-03-17T06:02:16.021Z,28.40
2023-03-17T06:04:43.963Z,28.40
2023-03-17T06:07:12.242Z,28.50
2023-03-17T06:09:40.609Z,28.50
2023-03-17T06:12:08.715Z,28.50
2023-03-17T06:14:36.965Z,28.40
2023-03-17T06:17:04.984Z,28.40
2023-03-17T06:19:33.081Z,28.40
2023-03-17T06:22:01.401Z,28.40
2023-03-17T06:24:29.321Z,28.40
2023-03-17T06:26:57.355Z,28.40
2023-03-17T06:29:25.770Z,28.40
2023-03-17T06:31:53.631Z,28.40
2023-03-17T06:34:23.773Z,28.40
2023-03-17T06:36:52.009Z,28.40
2023-03-17T06:39:20.099Z,28.40
2023-03-17T06:41:48.466Z,28.40
2023-03-17T06:44:16.908Z,28.40
2023-03-17T06:46:45.299Z,28.40
2023-03-17T06:49:13.163Z,28.40
2023-03-17T06:51:41.663Z,28.40
2023-03-17T06:54:09.556Z,28.40
2023-03-17T06:56:37.857Z,28.40
2023-03-17T06:59:06.271Z,28.40
2023-03-17T07:01:34.205Z,28.40
2023-03-17T07:04:02.263Z,28.40
2023-03-17T07:06:30.545Z,28.40
2023-03-17T07:09:00.360Z,28.40
2023-03-17T07:11:30.558Z,28.40
2023-03-17T07:13:59.089Z,28.40
2023-03-17T07:16:27.295Z,28.40
2023-03-17T07:18:56.302Z,28.40
2023-03-17T07:21:24.519Z,28.40
2023-03-17T07:23:52.533Z,28.30
2023-03-17T07:26:20.653Z,28.30
2023-03-17T07:28:48.902Z,28.30
2023-03-17T07:31:17.493Z,28.40
2023-03-17T07:33:45.856Z,28.30
2023-03-17T07:36:14.990Z,28.30
2023-03-17T07:38:43.196Z,28.30
2023-03-17T07:41:11.319Z,28.30
2023-03-17T07:43:39.603Z,28.30
2023-03-17T07:46:07.723Z,28.30
2023-03-17T07:48:36.035Z,28.30
2023-03-17T07:51:04.241Z,28.40
2023-03-17T07:53:32.586Z,28.30
2023-03-17T07:56:00.470Z,28.30
2023-03-17T07:58:28.708Z,28.30
2023-03-17T08:00:56.766Z,28.30
2023-03-17T08:03:25.172Z,28.30
2023-03-17T08:05:55.655Z,28.30
2023-03-17T08:08:25.520Z,28.30
2023-03-17T08:10:58.433Z,28.30
2023-03-17T08:13:26.851Z,28.30
2023-03-17T08:15:54.768Z,28.30
2023-03-17T08:18:23.390Z,28.30
2023-03-17T08:20:51.848Z,28.30
2023-03-17T08:23:21.061Z,28.30
2023-03-17T08:25:49.555Z,28.30
2023-03-17T08:28:17.828Z,28.30
2023-03-17T08:30:47.528Z,28.30
2023-03-17T08:33:17.886Z,28.30
2023-03-17T08:35:46.276Z,28.30
2023-03-17T08:38:14.777Z,28.20
2023-03-17T08:40:43.012Z,28.30
2023-03-17T08:55:40.753Z,28.30
2023-03-17T08:58:09.041Z,28.40
2023-03-17T09:00:37.261Z,28.50
2023-03-17T09:03:05.705Z,28.50
2023-03-17T09:05:35.575Z,28.50
2023-03-17T09:08:05.323Z,28.50
2023-03-17T09:10:33.529Z,28.40
2023-03-17T09:13:02.023Z,28.40
2023-03-17T09:15:30.667Z,28.40
2023-03-17T09:17:58.972Z,28.30
2023-03-17T09:20:27.395Z,28.30
2023-03-17T09:22:55.324Z,28.30
2023-03-17T09:25:23.874Z,28.30
2023-03-17T09:27:51.908Z,28.30
2023-03-17T09:30:20.286Z,28.30
2023-03-17T09:32:48.279Z,28.30
2023-03-17T09:35:16.683Z,28.20
2023-03-17T09:37:44.574Z,28.30
2023-03-17T09:40:17.857Z,28.20
2023-03-17T09:43:01.182Z,28.20
2023-03-17T09:45:37.464Z,28.20
2023-03-17T09:48:29.219Z,28.20
2023-03-17T09:51:09.437Z,28.20
2023-03-17T09:53:42.192Z,28.20
2023-03-17T09:56:18.237Z,28.20
2023-03-17T09:59:08.479Z,28.20
2023-03-17T10:01:44.992Z,28.20
2023-03-17T10:04:13.492Z,28.20
2023-03-17T10:06:45.397Z,28.20
2023-03-17T10:09:47.652Z,28.20
2023-03-17T10:12:54.312Z,28.20
2023-03-17T10:15:37.872Z,28.20
2023-03-17T10:18:17.862Z,28.20
2023-03-17T10:21:02.756Z,28.20
2023-03-17T10:23:36.702Z,28.20
2023-03-17T10:26:32.067Z,28.30
2023-03-17T10:29:00.697Z,28.20
2023-03-17T10:31:32.121Z,28.20
2023-03-17T10:34:16.342Z,28.30
2023-03-17T10:36:49.061Z,28.30
2023-03-17T10:39:22.839Z,28.30
2023-03-17T10:42:11.769Z,28.30
2023-03-17T10:45:06.911Z,28.30
2023-03-17T10:47:44.935Z,28.30
2023-03-17T10:50:16.092Z,28.30
2023-03-17T10:52:45.598Z,28.20
2023-03-17T10:55:18.834Z,28.30
2023-03-17T10:58:01.044Z,28.30
2023-03-17T11:00:32.688Z,28.30
2023-03-17T11:03:04.937Z,28.30
2023-03-17T11:05:33.186Z,28.30
2023-03-17T11:08:15.745Z,28.30
2023-03-17T11:10:44.518Z,28.30
2023-03-17T11:13:17.809Z,28.30
2023-03-17T11:15:58.758Z,28.30
2023-03-17T11:18:35.446Z,28.30
2023-03-17T11:21:20.864Z,28.30
2023-03-17T11:23:59.700Z,28.30
2023-03-17T11:26:55.905Z,28.30
2023-03-17T11:29:44.375Z,28.30
2023-03-17T11:32:12.525Z,28.30
2023-03-17T11:35:01.213Z,28.30
2023-03-17T11:37:47.118Z,28.30
2023-03-17T11:40:31.503Z,28.30
2023-03-17T11:43:23.943Z,28.30
2023-03-17T11:46:24.611Z,28.40
2023-03-17T11:49:16.515Z,28.40
2023-03-17T11:51:50.142Z,28.40
2023-03-17T11:54:18.618Z,28.40
2023-03-17T11:56:51.774Z,28.40
2023-03-17T11:59:29.544Z,28.40
2023-03-17T12:02:30.372Z,28.40
2023-03-17T12:05:08.788Z,28.40
2023-03-17T12:07:48.712Z,28.40
2023-03-17T12:10:55.740Z,28.40
2023-03-17T12:13:57.993Z,28.40
2023-03-17T12:16:47.980Z,28.40
2023-03-17T12:20:01.150Z,28.40
2023-03-17T12:22:34.709Z,28.40
2023-03-17T12:25:34.063Z,28.40
2023-03-17T12:28:19.336Z,28.40
2023-03-17T12:30:54.727Z,28.40
2023-03-17T12:33:31.580Z,28.40
2023-03-17T12:36:00.559Z,28.40
2023-03-17T12:38:31.949Z,28.40
2023-03-17T12:41:27.860Z,28.40
2023-03-17T12:44:17.370Z,28.50
2023-03-17T12:47:06.956Z,28.40
2023-03-17T12:49:47.285Z,28.50
2023-03-17T12:52:27.900Z,28.50
2023-03-17T12:55:00.887Z,28.50
2023-03-17T12:57:36.863Z,28.50
2023-03-17T13:00:16.976Z,28.50
2023-03-17T13:02:51.385Z,28.50
2023-03-17T13:05:32.491Z,28.50
2023-03-17T13:08:04.463Z,28.50
2023-03-17T13:10:45.383Z,28.50
2023-03-17T13:13:44.743Z,28.50
2023-03-17T13:16:30.563Z,28.50
2023-03-17T13:19:13.701Z,28.50
2023-03-17T13:22:05.300Z,28.50
2023-03-17T13:24:50.342Z,28.50
2023-03-17T13:27:34.027Z,28.60
2023-03-17T13:30:23.667Z,28.50
2023-03-17T13:33:20.243Z,28.60
2023-03-17T13:36:23.685Z,28.60
2023-03-17T13:39:23.550Z,28.60
2023-03-17T13:42:24.452Z,28.60
2023-03-17T13:45:08.567Z,28.60
2023-03-17T13:47:39.384Z,28.60
2023-03-17T13:50:26.152Z,28.60
2023-03-17T13:53:03.155Z,28.60
2023-03-17T13:55:36.860Z,28.60
2023-03-17T13:58:10.942Z,28.60
2023-03-17T14:00:49.240Z,28.60
2023-03-17T14:03:25.713Z,28.60
2023-03-17T14:05:54.966Z,28.60
2023-03-17T14:08:59.806Z,28.60
2023-03-17T14:11:33.627Z,28.60
2023-03-17T14:14:32.190Z,28.70
2023-03-17T14:17:24.131Z,28.70
2023-03-17T14:20:01.488Z,28.70
2023-03-17T14:22:29.994Z,28.60
2023-03-17T14:25:01.613Z,28.70
2023-03-17T14:27:33.579Z,28.70
2023-03-17T14:30:16.392Z,28.70
2023-03-17T14:32:50.864Z,28.70
2023-03-17T14:35:20.247Z,28.70
2023-03-17T14:37:48.660Z,28.70
2023-03-17T14:40:26.844Z,28.70
2023-03-17T14:42:55.337Z,28.70
2023-03-17T14:45:31.384Z,28.70
2023-03-17T14:48:02.087Z,28.70
2023-03-17T14:50:33.953Z,28.80
2023-03-17T14:53:02.466Z,28.70
2023-03-17T14:55:43.066Z,28.70
2023-03-17T14:58:27.086Z,28.80
2023-03-17T15:01:08.291Z,28.80
2023-03-17T15:03:40.854Z,28.80
2023-03-17T15:06:26.243Z,28.80
2023-03-17T15:08:57.779Z,28.80
2023-03-17T15:11:36.733Z,28.80
2023-03-17T15:14:15.544Z,28.80
2023-03-17T15:16:49.713Z,28.80
2023-03-17T15:19:30.601Z,28.90
2023-03-17T15:21:58.846Z,28.80
2023-03-17T15:24:37.825Z,28.80
2023-03-17T15:27:32.396Z,28.80
2023-03-17T15:30:00.703Z,28.80
2023-03-17T15:32:29.404Z,28.90
2023-03-17T15:34:59.126Z,28.90
2023-03-17T15:37:30.632Z,28.90
2023-03-17T15:40:00.632Z,28.90
2023-03-17T15:42:34.484Z,28.90
2023-03-17T15:45:03.755Z,29.00
2023-03-17T15:47:34.450Z,28.90
2023-03-17T15:50:24.049Z,28.90
2023-03-17T15:52:52.542Z,29.00
2023-03-17T15:55:25.028Z,29.00
2023-03-17T15:57:55.591Z,29.00
2023-03-17T16:00:26.668Z,29.00
2023-03-17T16:02:58.457Z,29.00
2023-03-17T16:05:29.781Z,29.00
2023-03-17T16:07:58.619Z,29.00
2023-03-17T16:10:29.361Z,29.00
2023-03-17T16:12:58.006Z,29.00
2023-03-17T16:15:27.517Z,29.00
2023-03-17T16:17:59.054Z,29.10
2023-03-17T16:20:29.626Z,29.00
2023-03-17T16:23:04.897Z,29.00
2023-03-17T16:25:34.132Z,29.10
2023-03-17T16:28:08.362Z,29.00
2023-03-17T16:30:36.784Z,29.00
2023-03-17T16:33:16.249Z,29.10
2023-03-17T16:35:44.779Z,29.10
2023-03-17T16:38:20.219Z,29.10
2023-03-17T16:40:54.362Z,29.10
2023-03-17T16:43:32.168Z,29.10
2023-03-17T16:46:02.463Z,29.10
2023-03-17T16:48:31.077Z,29.20
2023-03-17T16:50:59.826Z,29.10
2023-03-17T16:53:28.166Z,29.10
2023-03-17T16:55:56.379Z,29.10
2023-03-17T16:58:34.406Z,29.20
2023-03-17T17:01:07.035Z,29.20
2023-03-17T17:03:35.256Z,29.20
2023-03-17T17:06:03.515Z,29.20
2023-03-17T17:08:31.457Z,29.20
2023-03-17T17:10:59.836Z,29.20
2023-03-17T17:13:27.784Z,29.20
2023-03-17T17:15:56.584Z,29.20
2023-03-17T17:18:25.017Z,29.20
2023-03-17T17:20:54.480Z,29.20
2023-03-17T17:23:25.683Z,29.20
2023-03-17T17:25:55.175Z,29.20
2023-03-17T17:28:25.327Z,29.20
2023-03-17T17:30:54.068Z,29.20
2023-03-17T17:33:22.664Z,29.20
2023-03-17T17:35:51.552Z,29.30
2023-03-17T17:38:25.293Z,29.30
2023-03-17T17:40:54.686Z,29.30
2023-03-17T17:43:23.230Z,29.30
2023-03-17T17:45:52.697Z,29.30
2023-03-17T17:48:23.760Z,29.30
2023-03-17T17:50:53.931Z,29.30
2023-03-17T17:53:22.636Z,29.30
2023-03-17T17:55:51.447Z,29.30
2023-03-17T17:58:25.087Z,29.30
2023-03-17T18:00:54.065Z,29.30
2023-03-17T18:03:22.662Z,29.30
2023-03-17T18:05:51.366Z,29.30
2023-03-17T18:08:19.629Z,29.30
2023-03-17T18:10:49.661Z,29.30
2023-03-17T18:13:19.157Z,29.30
2023-03-17T18:15:47.297Z,29.30
2023-03-17T18:18:15.255Z,29.30
2023-03-17T18:20:43.644Z,29.30
2023-03-17T18:23:11.894Z,29.30
2023-03-17T18:25:40.078Z,29.30
2023-03-17T18:28:08.642Z,29.30
2023-03-17T18:30:36.896Z,29.30
2023-03-17T18:33:14.001Z,29.30
2023-03-17T18:35:42.853Z,29.30
2023-03-17T18:38:11.046Z,29.30
2023-03-17T18:40:39.534Z,29.20
2023-03-17T18:43:07.938Z,29.20
2023-03-17T18:45:35.916Z,29.30
2023-03-17T18:48:04.483Z,29.30
2023-03-17T18:50:33.230Z,29.30
2023-03-17T18:53:01.980Z,29.30
2023-03-17T18:55:30.387Z,29.30
2023-03-17T18:57:58.757Z,29.30
2023-03-17T19:00:26.724Z,29.30
2023-03-17T19:02:55.003Z,29.30
2023-03-17T19:05:23.642Z,29.30
2023-03-17T19:07:52.302Z,29.30
2023-03-17T19:10:20.660Z,29.30
2023-03-17T19:12:48.911Z,29.30
2023-03-17T19:15:17.162Z,29.30
2023-03-17T19:30:59.590Z,29.30
2023-03-17T19:33:27.966Z,29.50
2023-03-17T19:35:57.130Z,29.50
2023-03-17T19:38:26.345Z,29.50
2023-03-17T19:40:54.739Z,29.50
2023-03-17T19:43:39.534Z,29.40
2023-03-17T19:46:10.586Z,29.40
2023-03-17T19:48:39.092Z,29.40
2023-03-17T19:51:14.592Z,29.40
2023-03-17T19:53:42.993Z,29.40
2023-03-17T19:56:10.868Z,29.40
2023-03-17T19:58:39.032Z,29.30
2023-03-17T20:01:07.124Z,29.30
2023-03-17T20:03:36.280Z,29.30
2023-03-17T20:06:04.806Z,29.30
2023-03-17T20:08:33.963Z,29.30
2023-03-17T20:11:02.846Z,29.30
2023-03-17T20:13:31.085Z,29.30
2023-03-17T20:15:59.532Z,29.30
2023-03-17T20:18:27.439Z,29.30
2023-03-17T20:20:56.626Z,29.30
2023-03-17T20:23:25.895Z,29.30
2023-03-17T20:25:54.689Z,29.30
2023-03-17T20:28:23.119Z,29.30
2023-03-17T20:30:51.772Z,29.30
2023-03-17T20:33:19.773Z,29.30
2023-03-17T20:35:48.079Z,29.30
2023-03-17T20:38:16.156Z,29.30
2023-03-17T20:40:44.448Z,29.30
2023-03-17T20:55:56.574Z,29.20
2023-03-17T20:58:24.988Z,29.40
2023-03-17T21:00:52.960Z,29.50
2023-03-17T21:03:21.202Z,29.50
2023-03-17T21:05:49.186Z,29.40
2023-03-17T21:08:17.384Z,29.40
2023-03-17T21:10:45.463Z,29.40
2023-03-17T21:13:13.706Z,29.40
2023-03-17T21:15:42.181Z,29.40
2023-03-17T21:18:10.118Z,29.30
2023-03-17T21:20:38.453Z,29.30
2023-03-17T21:23:06.661Z,29.30
2023-03-17T21:25:34.979Z,29.30
2023-03-17T21:28:04.351Z,29.30
2023-03-17T21:30:33.454Z,29.20
2023-03-17T21:33:02.320Z,29.20
2023-03-17T21:35:31.363Z,29.20
2023-03-17T21:37:59.693Z,29.20
2023-03-17T21:40:28.009Z,29.20
2023-03-17T21:42:56.237Z,29.20
2023-03-17T21:45:24.435Z,29.20
2023-03-17T21:47:52.517Z,29.20
2023-03-17T21:50:21.341Z,29.20
2023-03-17T21:52:50.024Z,29.20
2023-03-17T21:55:18.281Z,29.20
2023-03-17T21:57:46.203Z,29.20
2023-03-17T22:00:15.104Z,29.20
2023-03-17T22:02:44.857Z,29.20
2023-03-17T22:05:12.873Z,29.20
2023-03-17T22:07:41.319Z,29.20
2023-03-17T22:10:10.499Z,29.20
2023-03-17T22:12:39.527Z,29.20
2023-03-17T22:15:08.407Z,29.20
2023-03-17T22:17:36.998Z,29.20
2023-03-17T22:20:05.812Z,29.10
2023-03-17T22:22:34.255Z,29.20
2023-03-17T22:25:02.221Z,29.20
2023-03-17T22:27:30.520Z,29.20
2023-03-17T22:29:58.503Z,29.20
2023-03-17T22:32:27.183Z,29.20
2023-03-17T22:34:55.422Z,29.20
2023-03-17T22:37:23.363Z,29.20
2023-03-17T22:39:51.939Z,29.20
2023-03-17T22:42:20.159Z,29.10
2023-03-17T22:44:48.086Z,29.10
2023-03-17T22:47:16.401Z,29.20
2023-03-17T22:49:44.905Z,29.20
2023-03-17T22:52:12.873Z,29.10
2023-03-17T22:54:41.167Z,29.20
2023-03-17T22:57:09.720Z,29.10
2023-03-17T22:59:38.100Z,29.10
2023-03-17T23:02:06.059Z,29.10
2023-03-17T23:04:34.822Z,29.10
2023-03-17T23:07:03.144Z,29.20
2023-03-17T23:09:31.817Z,29.20
2023-03-17T23:12:00.482Z,29.20
2023-03-17T23:14:28.913Z,29.10
2023-03-17T23:16:56.825Z,29.10
2023-03-17T23:19:25.243Z,29.20
2023-03-17T23:21:53.402Z,29.20
2023-03-17T23:24:21.354Z,29.20
2023-03-17T23:26:49.846Z,29.20
2023-03-17T23:29:18.084Z,29.20
2023-03-17T23:31:46.496Z,29.20
2023-03-17T23:34:14.858Z,29.10
2023-03-17T23:36:43.207Z,29.10
2023-03-17T23:39:11.333Z,29.10
2023-03-17T23:41:39.841Z,29.20
2023-03-17T23:44:09.859Z,29.20
2023-03-17T23:46:38.776Z,29.10
2023-03-17T23:49:07.266Z,29.10
2023-03-17T23:51:36.134Z,29.10
2023-03-17T23:54:04.611Z,29.10
2023-03-17T23:56:33.100Z,29.10
2023-03-17T23:59:01.852Z,29.10
